createdAt,value
2018-04-28T00:01:26.784Z,6.00
2018-04-28T00:03:54.524Z,10.20
2018-04-28T00:06:22.963Z,8.83
2018-04-28T00:08:50.804Z,7.80
2018-04-28T00:11:18.473Z,6.37
2018-04-28T00:13:46.189Z,8.70
2018-04-28T00:16:16.832Z,7.67
2018-04-28T00:18:47.144Z,16.43
2018-04-28T00:21:14.802Z,6.03
2018-04-28T00:23:44.361Z,6.20
2018-04-28T00:26:11.999Z,5.27
2018-04-28T00:28:58.214Z,8.80
2018-04-28T00:31:32.110Z,6.33
2018-04-28T00:34:01.583Z,6.63
2018-04-28T00:37:03.747Z,10.50
2018-04-28T00:39:34.998Z,8.23
2018-04-28T00:42:02.692Z,4.03
2018-04-28T00:44:31.030Z,5.23
2018-04-28T00:46:59.625Z,6.20
2018-04-28T00:49:34.052Z,5.27
2018-04-28T00:52:01.783Z,5.10
2018-04-28T00:54:34.392Z,8.77
2018-04-28T00:57:23.556Z,8.13
2018-04-28T00:59:57.879Z,5.10
2018-04-28T01:02:25.625Z,7.50
2018-04-28T01:04:53.322Z,5.47
2018-04-28T01:07:22.556Z,5.10
2018-04-28T01:10:00.848Z,9.03
2018-04-28T01:12:43.605Z,9.13
2018-04-28T01:15:14.926Z,5.87
2018-04-28T01:18:01.131Z,8.10
2018-04-28T01:20:30.949Z,7.27
2018-04-28T01:23:07.801Z,6.80
2018-04-28T01:25:53.406Z,6.03
2018-04-28T01:28:28.913Z,4.93
2018-04-28T01:31:01.255Z,9.20
2018-04-28T01:33:48.497Z,6.83
2018-04-28T01:36:33.582Z,7.57
2018-04-28T01:39:08.979Z,7.93
2018-04-28T01:41:48.372Z,8.50
2018-04-28T01:44:28.168Z,11.83
2018-04-28T01:46:56.642Z,7.57
2018-04-28T01:52:35.110Z,7.50
2018-04-28T01:55:05.023Z,6.10
2018-04-28T01:57:53.277Z,5.00
2018-04-28T02:00:39.430Z,6.00
2018-04-28T02:03:14.995Z,6.70
2018-04-28T02:05:49.384Z,5.27
2018-04-28T02:08:17.866Z,8.73
2018-04-28T02:10:53.261Z,10.27
2018-04-28T02:13:29.119Z,11.00
2018-04-28T02:16:02.522Z,8.10
2018-04-28T02:21:43.735Z,5.70
2018-04-28T02:24:13.290Z,4.60
2018-04-28T02:26:40.961Z,8.10
2018-04-28T02:29:14.663Z,8.83
2018-04-28T02:31:50.954Z,7.70
2018-04-28T02:34:25.820Z,10.67
2018-04-28T02:36:58.807Z,8.87
2018-04-28T02:39:28.388Z,15.73
2018-04-28T02:42:16.452Z,8.43
2018-04-28T02:44:44.904Z,7.50
2018-04-28T02:47:25.235Z,5.60
2018-04-28T02:50:01.670Z,7.43
2018-04-28T02:52:39.091Z,5.47
2018-04-28T02:58:20.716Z,8.63
2018-04-28T03:03:51.034Z,4.97
2018-04-28T03:06:22.471Z,9.80
2018-04-28T03:08:51.022Z,11.77
2018-04-28T03:11:18.724Z,5.50
2018-04-28T03:13:50.922Z,6.30
2018-04-28T03:19:16.288Z,6.83
2018-04-28T03:21:49.579Z,8.23
2018-04-28T03:24:24.832Z,10.40
2018-04-28T03:27:10.925Z,11.00
2018-04-28T03:29:50.404Z,7.67
2018-04-28T03:32:18.124Z,8.00
2018-04-28T03:34:46.649Z,8.73
2018-04-28T03:37:27.353Z,5.77
2018-04-28T03:40:01.898Z,12.63
2018-04-28T03:42:36.323Z,10.10
2018-04-28T03:45:04.033Z,4.43
2018-04-28T03:47:44.097Z,4.53
2018-04-28T03:50:31.712Z,4.23
2018-04-28T03:53:06.153Z,10.20
2018-04-28T03:55:34.737Z,4.90
2018-04-28T03:58:14.084Z,6.10
2018-04-28T04:00:53.498Z,8.47
2018-04-28T04:03:22.092Z,6.20
2018-04-28T04:06:06.187Z,11.00
2018-04-28T04:08:37.898Z,12.50
2018-04-28T04:11:17.286Z,8.17
2018-04-28T04:13:56.594Z,6.30
2018-04-28T04:16:48.743Z,11.13
2018-04-28T04:19:22.501Z,6.80
2018-04-28T04:24:48.771Z,5.50
2018-04-28T04:27:30.964Z,8.43
2018-04-28T04:30:21.463Z,8.33
2018-04-28T04:33:09.677Z,7.00
2018-04-28T04:35:42.857Z,8.10
2018-04-28T04:38:29.066Z,8.13
2018-04-28T04:41:03.251Z,5.70
2018-04-28T04:43:39.784Z,8.80
2018-04-28T04:49:19.849Z,17.60
2018-04-28T04:51:56.923Z,8.53
2018-04-28T04:54:43.328Z,8.77
2018-04-28T04:57:23.747Z,8.30
2018-04-28T04:59:57.131Z,9.70
2018-04-28T05:02:46.808Z,14.33
2018-04-28T05:08:36.323Z,17.53
2018-04-28T05:11:32.478Z,9.37
2018-04-28T05:17:10.502Z,5.67
2018-04-28T05:19:53.141Z,7.00
2018-04-28T05:25:27.370Z,11.80
2018-04-28T05:28:19.614Z,8.27
2018-04-28T05:30:59.173Z,14.10
2018-04-28T05:33:39.424Z,53.80
2018-04-28T05:36:19.258Z,28.00
2018-04-28T05:39:17.445Z,9.70
2018-04-28T05:41:56.974Z,8.60
2018-04-28T05:44:47.374Z,7.23
2018-04-28T05:47:21.908Z,10.33
2018-04-28T05:50:09.655Z,6.93
2018-04-28T05:52:49.103Z,10.10
2018-04-28T05:55:41.655Z,10.00
2018-04-28T05:58:13.168Z,6.57
2018-04-28T06:00:53.010Z,9.93
2018-04-28T06:06:37.434Z,9.67
2018-04-28T06:09:26.485Z,9.07
2018-04-28T06:15:32.664Z,11.00
2018-04-28T06:18:09.844Z,8.50
2018-04-28T06:20:41.385Z,15.07
2018-04-28T06:23:08.991Z,9.87
2018-04-28T06:25:37.133Z,8.30
2018-04-28T06:28:05.000Z,7.77
2018-04-28T06:30:32.871Z,9.50
2018-04-28T06:33:02.561Z,7.60
2018-04-28T06:35:30.648Z,8.63
2018-04-28T06:37:58.341Z,8.37
2018-04-28T06:40:26.264Z,10.20
2018-04-28T06:42:54.352Z,5.73
2018-04-28T06:45:22.239Z,11.10
2018-04-28T06:47:50.186Z,13.00
2018-04-28T06:50:18.174Z,13.60
2018-04-28T06:52:46.440Z,7.67
2018-04-28T06:55:14.437Z,6.50
2018-04-28T06:57:42.529Z,9.37
2018-04-28T07:00:10.708Z,7.50
2018-04-28T07:02:38.514Z,7.80
2018-04-28T07:05:06.697Z,8.23
2018-04-28T07:07:34.719Z,10.50
2018-04-28T07:10:02.851Z,6.33
2018-04-28T07:12:30.765Z,9.70
2018-04-28T07:14:58.558Z,10.20
2018-04-28T07:17:26.439Z,5.23
2018-04-28T07:19:54.099Z,6.67
2018-04-28T07:22:22.043Z,15.43
2018-04-28T07:24:50.264Z,12.20
2018-04-28T07:27:17.891Z,7.27
2018-04-28T07:29:45.674Z,10.93
2018-04-28T07:32:13.444Z,11.90
2018-04-28T07:34:41.102Z,9.03
2018-04-28T07:37:08.798Z,9.70
2018-04-28T07:39:36.633Z,7.10
2018-04-28T07:42:04.405Z,7.53
2018-04-28T07:44:32.531Z,10.20
2018-04-28T07:47:00.333Z,10.67
2018-04-28T07:49:28.344Z,11.60
2018-04-28T07:51:56.067Z,8.00
2018-04-28T07:54:24.125Z,8.93
2018-04-28T07:56:52.049Z,9.57
2018-04-28T07:59:20.166Z,5.53
2018-04-28T08:01:47.851Z,10.10
2018-04-28T08:04:15.716Z,5.50
2018-04-28T08:06:43.464Z,6.13
2018-04-28T08:09:11.340Z,5.20
2018-04-28T08:11:39.210Z,5.83
2018-04-28T08:14:07.867Z,17.00
2018-04-28T08:16:35.801Z,8.50
2018-04-28T08:19:03.536Z,10.00
2018-04-28T08:21:31.292Z,10.67
2018-04-28T08:23:59.066Z,7.63
2018-04-28T08:26:26.798Z,14.93
2018-04-28T08:28:54.486Z,5.13
2018-04-28T08:31:22.250Z,5.67
2018-04-28T08:33:50.009Z,5.90
2018-04-28T08:36:17.763Z,5.43
2018-04-28T08:38:45.529Z,6.77
2018-04-28T08:41:14.136Z,10.80
2018-04-28T08:43:41.998Z,12.40
2018-04-28T08:46:09.593Z,12.67
2018-04-28T08:48:37.415Z,4.83
2018-04-28T08:51:05.237Z,11.03
2018-04-28T08:53:32.948Z,8.43
2018-04-28T08:56:00.802Z,5.07
2018-04-28T08:58:28.681Z,5.03
2018-04-28T09:01:02.496Z,6.73
2018-04-28T09:03:30.129Z,5.37
2018-04-28T09:05:57.789Z,5.00
2018-04-28T09:08:25.849Z,6.53
2018-04-28T09:10:53.650Z,6.90
2018-04-28T09:13:21.322Z,7.30
2018-04-28T09:15:49.583Z,10.80
2018-04-28T09:18:17.525Z,13.40
2018-04-28T09:20:45.863Z,7.37
2018-04-28T09:23:13.596Z,6.90
2018-04-28T09:25:41.576Z,8.20
2018-04-28T09:28:09.235Z,5.90
2018-04-28T09:30:37.863Z,6.93
2018-04-28T09:33:05.659Z,15.23
2018-04-28T09:35:33.450Z,6.33
2018-04-28T09:38:02.161Z,4.93
2018-04-28T09:40:30.575Z,5.90
2018-04-28T09:42:58.473Z,7.57
2018-04-28T09:45:26.635Z,7.13
2018-04-28T09:47:54.336Z,5.70
2018-04-28T09:50:22.020Z,6.00
2018-04-28T09:52:50.554Z,5.93
2018-04-28T09:55:18.433Z,4.93
2018-04-28T09:57:57.787Z,10.97
2018-04-28T10:00:46.027Z,6.23
2018-04-28T10:03:28.626Z,4.70
2018-04-28T10:05:56.250Z,3.90
2018-04-28T10:08:23.918Z,7.43
2018-04-28T10:10:51.574Z,7.03
2018-04-28T10:13:19.267Z,5.03
2018-04-28T10:15:47.156Z,6.43
2018-04-28T10:18:14.795Z,11.40
2018-04-28T10:20:42.590Z,13.30
2018-04-28T10:23:10.190Z,4.90
2018-04-28T10:25:37.799Z,9.70
2018-04-28T10:28:05.465Z,6.47
2018-04-28T10:30:33.134Z,15.00
2018-04-28T10:33:00.731Z,10.10
2018-04-28T10:35:28.400Z,7.10
2018-04-28T10:37:56.086Z,6.67
2018-04-28T10:40:23.704Z,7.33
2018-04-28T10:42:51.369Z,4.53
2018-04-28T10:45:19.094Z,6.83
2018-04-28T10:47:47.809Z,7.57
2018-04-28T10:50:15.634Z,7.93
2018-04-28T10:52:43.914Z,5.83
2018-04-28T10:55:11.585Z,4.40
2018-04-28T10:57:39.207Z,3.80
2018-04-28T11:00:06.895Z,5.77
2018-04-28T11:02:34.540Z,6.30
2018-04-28T11:05:02.267Z,9.43
2018-04-28T11:07:29.906Z,6.50
2018-04-28T11:09:57.566Z,3.80
2018-04-28T11:12:25.224Z,6.90
2018-04-28T11:14:52.820Z,3.60
2018-04-28T11:17:20.466Z,2.37
2018-04-28T11:19:48.159Z,7.83
2018-04-28T11:22:15.773Z,11.13
2018-04-28T11:24:43.441Z,5.53
2018-04-28T11:27:11.098Z,3.77
2018-04-28T11:29:38.770Z,3.10
2018-04-28T11:32:07.091Z,7.00
2018-04-28T11:34:34.910Z,3.10
2018-04-28T11:37:02.933Z,5.63
2018-04-28T11:39:30.595Z,3.23
2018-04-28T11:41:58.243Z,4.67
2018-04-28T11:44:25.952Z,6.00
2018-04-28T11:46:54.003Z,3.50
2018-04-28T11:49:21.787Z,4.30
2018-04-28T11:51:49.465Z,7.77
2018-04-28T11:54:17.123Z,6.17
2018-04-28T11:56:44.943Z,3.97
2018-04-28T11:59:12.819Z,8.13
2018-04-28T12:01:40.420Z,6.20
2018-04-28T12:04:08.284Z,6.60
2018-04-28T12:06:36.002Z,4.50
2018-04-28T12:09:04.122Z,5.50
2018-04-28T12:11:31.988Z,5.33
2018-04-28T12:13:59.828Z,1.97
2018-04-28T12:16:27.436Z,3.10
2018-04-28T12:18:55.093Z,12.43
2018-04-28T12:21:22.962Z,4.60
2018-04-28T12:23:50.616Z,3.50
2018-04-28T12:26:18.538Z,2.40
2018-04-28T12:28:46.343Z,7.70
2018-04-28T12:31:14.212Z,2.30
2018-04-28T12:33:41.917Z,7.03
2018-04-28T12:36:09.739Z,6.93
2018-04-28T12:38:38.595Z,2.20
2018-04-28T12:41:06.497Z,8.23
2018-04-28T12:43:34.451Z,10.50
2018-04-28T12:46:02.140Z,5.67
2018-04-28T12:48:30.091Z,12.23
2018-04-28T12:50:57.732Z,3.87
2018-04-28T12:53:25.416Z,10.20
2018-04-28T12:55:53.286Z,4.33
2018-04-28T12:58:21.016Z,5.23
2018-04-28T13:00:48.685Z,4.50
2018-04-28T13:03:16.344Z,6.90
2018-04-28T13:05:43.940Z,5.07
2018-04-28T13:08:11.708Z,4.63
2018-04-28T13:10:39.368Z,6.10
2018-04-28T13:13:07.723Z,13.23
2018-04-28T13:15:35.347Z,4.13
2018-04-28T13:18:03.084Z,3.40
2018-04-28T13:20:30.842Z,9.87
2018-04-28T13:22:58.591Z,4.30
2018-04-28T13:25:26.714Z,5.37
2018-04-28T13:27:55.076Z,10.87
2018-04-28T13:30:22.803Z,11.77
2018-04-28T13:32:50.685Z,7.13
2018-04-28T13:35:18.445Z,5.00
2018-04-28T13:37:46.151Z,4.63
2018-04-28T13:40:14.085Z,10.70
2018-04-28T13:42:41.748Z,7.37
2018-04-28T13:45:09.366Z,17.13
2018-04-28T13:47:37.061Z,19.60
2018-04-28T13:50:05.787Z,7.60
2018-04-28T13:52:33.426Z,10.33
2018-04-28T13:55:01.173Z,6.73
2018-04-28T13:57:28.842Z,9.53
2018-04-28T13:59:56.443Z,12.83
2018-04-28T14:02:24.102Z,7.50
2018-04-28T14:04:51.910Z,9.20
2018-04-28T14:07:19.522Z,6.90
2018-04-28T14:09:47.342Z,11.10
2018-04-28T14:12:14.935Z,10.10
2018-04-28T14:14:42.580Z,16.83
2018-04-28T14:17:10.549Z,12.87
2018-04-28T14:19:38.222Z,16.27
2018-04-28T14:22:05.816Z,5.13
2018-04-28T14:24:33.803Z,12.10
2018-04-28T14:27:01.524Z,17.70
2018-04-28T14:29:29.217Z,15.67
2018-04-28T14:31:57.041Z,17.10
2018-04-28T14:34:25.322Z,11.77
2018-04-28T14:36:53.082Z,9.03
2018-04-28T14:39:20.699Z,29.57
2018-04-28T14:41:48.389Z,13.90
2018-04-28T14:44:16.052Z,13.03
2018-04-28T14:46:44.020Z,18.13
2018-04-28T14:49:11.639Z,14.17
2018-04-28T14:51:39.246Z,26.40
2018-04-28T14:54:06.882Z,23.23
2018-04-28T14:56:34.704Z,17.07
2018-04-28T14:59:02.345Z,17.23
2018-04-28T15:01:29.982Z,23.77
2018-04-28T15:03:57.620Z,15.33
2018-04-28T15:06:25.234Z,25.30
2018-04-28T15:08:52.892Z,17.40
2018-04-28T15:11:20.500Z,12.60
2018-04-28T15:13:50.729Z,26.50
2018-04-28T15:16:18.419Z,24.23
2018-04-28T15:18:46.288Z,13.60
2018-04-28T15:21:13.949Z,22.73
2018-04-28T15:23:41.573Z,17.10
2018-04-28T15:26:09.246Z,36.23
2018-04-28T15:28:36.934Z,13.03
2018-04-28T15:31:04.709Z,23.93
2018-04-28T15:33:32.391Z,17.33
2018-04-28T15:36:00.271Z,22.03
2018-04-28T15:38:28.071Z,16.57
2018-04-28T15:40:55.784Z,27.57
2018-04-28T15:43:23.528Z,17.30
2018-04-28T15:45:51.120Z,18.37
2018-04-28T15:48:18.793Z,16.57
2018-04-28T15:50:46.475Z,18.63
2018-04-28T15:53:14.066Z,13.57
2018-04-28T15:55:41.749Z,20.57
2018-04-28T15:58:09.617Z,13.97
2018-04-28T16:00:37.281Z,16.37
2018-04-28T16:03:04.932Z,15.40
2018-04-28T16:05:32.844Z,15.50
2018-04-28T16:08:00.531Z,15.03
2018-04-28T16:10:28.891Z,13.60
2018-04-28T16:12:56.563Z,15.20
2018-04-28T16:15:24.672Z,13.67
2018-04-28T16:17:52.409Z,21.23
2018-04-28T16:20:20.537Z,12.33
2018-04-28T16:22:48.935Z,20.57
2018-04-28T16:25:17.110Z,18.53
2018-04-28T16:27:45.679Z,19.70
2018-04-28T16:30:14.455Z,12.67
2018-04-28T16:32:43.276Z,31.13
2018-04-28T16:35:11.619Z,22.50
2018-04-28T16:37:39.493Z,21.73
2018-04-28T16:40:07.261Z,17.07
2018-04-28T16:42:35.227Z,16.20
2018-04-28T16:45:03.821Z,17.10
2018-04-28T16:47:32.029Z,12.00
2018-04-28T16:49:59.850Z,18.40
2018-04-28T16:52:29.164Z,26.93
2018-04-28T16:54:58.130Z,17.87
2018-04-28T16:57:25.897Z,21.53
2018-04-28T16:59:53.548Z,14.60
2018-04-28T17:02:26.633Z,22.00
2018-04-28T17:04:55.756Z,15.17
2018-04-28T17:07:23.691Z,19.50
2018-04-28T17:09:52.641Z,23.63
2018-04-28T17:12:20.593Z,15.23
2018-04-28T17:14:48.588Z,15.73
2018-04-28T17:17:22.568Z,11.83
2018-04-28T17:19:51.354Z,23.47
2018-04-28T17:22:19.247Z,15.80
2018-04-28T17:24:49.218Z,19.10
2018-04-28T17:27:17.468Z,15.37
2018-04-28T17:29:48.372Z,17.27
2018-04-28T17:32:17.380Z,19.93
2018-04-28T17:34:45.129Z,11.10
2018-04-28T17:37:12.903Z,16.20
2018-04-28T17:39:40.790Z,22.27
2018-04-28T17:42:10.102Z,14.80
2018-04-28T17:44:39.377Z,27.67
2018-04-28T17:47:07.745Z,19.43
2018-04-28T17:49:35.798Z,25.53
2018-04-28T17:52:03.518Z,17.37
2018-04-28T17:54:32.016Z,18.33
2018-04-28T17:56:59.797Z,22.20
2018-04-28T17:59:28.531Z,21.93
2018-04-28T18:01:57.292Z,20.63
2018-04-28T18:04:26.150Z,11.43
2018-04-28T18:06:56.684Z,17.73
2018-04-28T18:09:25.548Z,13.23
2018-04-28T18:11:54.360Z,12.17
2018-04-28T18:14:22.096Z,9.63
2018-04-28T18:16:51.585Z,12.43
2018-04-28T18:19:19.825Z,20.13
2018-04-28T18:21:48.015Z,22.00
2018-04-28T18:24:15.793Z,15.83
2018-04-28T18:26:44.075Z,14.00
2018-04-28T18:29:12.010Z,16.47
2018-04-28T18:31:39.880Z,16.83
2018-04-28T18:34:07.915Z,15.30
2018-04-28T18:36:35.824Z,10.20
2018-04-28T18:39:03.922Z,19.67
2018-04-28T18:41:31.597Z,16.83
2018-04-28T18:43:59.613Z,9.50
2018-04-28T18:46:27.405Z,15.47
2018-04-28T18:48:55.544Z,20.37
2018-04-28T18:51:23.176Z,22.83
2018-04-28T18:53:51.163Z,22.23
2018-04-28T18:56:19.223Z,13.50
2018-04-28T18:58:48.492Z,16.57
2018-04-28T19:01:17.316Z,15.60
2018-04-28T19:03:46.349Z,12.90
2018-04-28T19:06:15.692Z,23.73
2018-04-28T19:08:43.725Z,13.30
2018-04-28T19:11:11.570Z,17.90
2018-04-28T19:13:40.894Z,15.87
2018-04-28T19:16:08.738Z,21.07
2018-04-28T19:18:36.911Z,12.67
2018-04-28T19:21:05.150Z,18.80
2018-04-28T19:23:33.474Z,20.63
2018-04-28T19:26:01.779Z,15.10
2018-04-28T19:28:29.759Z,15.70
2018-04-28T19:30:57.595Z,18.50
2018-04-28T19:33:25.287Z,20.67
2018-04-28T19:35:53.374Z,12.27
2018-04-28T19:38:21.128Z,13.73
2018-04-28T19:40:48.859Z,18.93
2018-04-28T19:43:16.561Z,21.77
2018-04-28T19:45:45.037Z,32.43
2018-04-28T19:48:13.676Z,17.23
2018-04-28T19:50:41.667Z,15.37
2018-04-28T19:53:09.349Z,14.77
2018-04-28T19:55:37.051Z,17.97
2018-04-28T19:58:05.738Z,31.07
2018-04-28T20:00:35.343Z,13.60
2018-04-28T20:03:03.067Z,21.10
2018-04-28T20:05:31.373Z,14.90
2018-04-28T20:07:59.120Z,10.10
2018-04-28T20:10:26.958Z,10.43
2018-04-28T20:12:54.620Z,11.33
2018-04-28T20:15:22.383Z,12.37
2018-04-28T20:17:50.049Z,17.43
2018-04-28T20:20:17.801Z,33.87
2018-04-28T20:22:57.172Z,23.13
2018-04-28T20:25:24.934Z,20.10
2018-04-28T20:27:52.768Z,13.53
2018-04-28T20:30:20.517Z,18.57
2018-04-28T20:32:48.238Z,16.03
2018-04-28T20:35:15.982Z,17.03
2018-04-28T20:37:43.820Z,14.73
2018-04-28T20:40:11.630Z,21.87
2018-04-28T20:42:40.240Z,18.47
2018-04-28T20:45:08.679Z,17.20
2018-04-28T20:47:36.330Z,28.83
2018-04-28T20:50:04.095Z,24.23
2018-04-28T20:52:31.929Z,12.97
2018-04-28T20:54:59.701Z,19.17
2018-04-28T20:57:27.407Z,23.20
2018-04-28T20:59:55.095Z,12.30
2018-04-28T21:02:22.809Z,16.23
2018-04-28T21:04:50.598Z,13.53
2018-04-28T21:07:18.215Z,12.83
2018-04-28T21:09:45.919Z,16.43
2018-04-28T21:12:13.790Z,13.37
2018-04-28T21:14:41.470Z,13.43
2018-04-28T21:17:09.342Z,16.70
2018-04-28T21:19:37.298Z,16.03
2018-04-28T21:22:06.375Z,22.10
2018-04-28T21:24:34.523Z,22.13
2018-04-28T21:27:03.335Z,13.70
2018-04-28T21:29:31.412Z,17.40
2018-04-28T21:31:59.168Z,21.27
2018-04-28T21:34:26.918Z,17.83
2018-04-28T21:36:54.554Z,16.07
2018-04-28T21:39:22.277Z,11.00
2018-04-28T21:41:50.317Z,19.37
2018-04-28T21:44:18.194Z,18.07
2018-04-28T21:46:45.797Z,14.03
2018-04-28T21:49:13.930Z,14.93
2018-04-28T21:51:41.565Z,36.07
2018-04-28T21:54:09.431Z,19.60
2018-04-28T21:56:37.178Z,19.90
2018-04-28T21:59:05.078Z,13.57
2018-04-28T22:01:32.744Z,25.53
2018-04-28T22:04:00.377Z,18.70
2018-04-28T22:06:28.035Z,20.03
2018-04-28T22:08:56.130Z,15.90
2018-04-28T22:11:24.018Z,12.87
2018-04-28T22:13:51.892Z,19.40
2018-04-28T22:16:19.631Z,21.80
2018-04-28T22:18:47.618Z,14.70
2018-04-28T22:21:15.325Z,24.57
2018-04-28T22:23:43.165Z,17.20
2018-04-28T22:26:10.957Z,18.10
2018-04-28T22:28:38.676Z,19.30
2018-04-28T22:31:07.735Z,14.50
2018-04-28T22:33:35.479Z,13.57
2018-04-28T22:36:03.142Z,28.00
2018-04-28T22:38:30.808Z,9.83
2018-04-28T22:40:58.439Z,14.50
2018-04-28T22:43:26.186Z,17.60
2018-04-28T22:45:53.938Z,29.80
2018-04-28T22:48:21.611Z,18.57
2018-04-28T22:50:49.238Z,19.90
2018-04-28T22:53:16.939Z,31.03
2018-04-28T22:55:44.531Z,18.00
2018-04-28T22:58:12.174Z,19.27
2018-04-28T23:00:42.739Z,14.97
2018-04-28T23:03:10.456Z,24.50
2018-04-28T23:05:38.125Z,18.23
2018-04-28T23:08:05.795Z,13.43
2018-04-28T23:10:33.547Z,20.93
2018-04-28T23:13:01.309Z,20.33
2018-04-28T23:15:28.951Z,16.90
2018-04-28T23:17:56.624Z,27.87
2018-04-28T23:20:24.415Z,17.27
2018-04-28T23:22:52.304Z,18.77
2018-04-28T23:25:20.038Z,23.17
2018-04-28T23:27:47.673Z,25.33
2018-04-28T23:30:15.291Z,15.50
2018-04-28T23:32:42.913Z,22.27
2018-04-28T23:35:10.572Z,13.67
2018-04-28T23:37:38.180Z,31.77
2018-04-28T23:40:05.827Z,29.27
2018-04-28T23:42:33.432Z,12.23
2018-04-28T23:45:01.043Z,18.20
2018-04-28T23:47:28.707Z,21.10
2018-04-28T23:49:56.411Z,29.17
2018-04-28T23:52:24.186Z,20.73
2018-04-28T23:54:51.882Z,22.07
2018-04-28T23:57:19.495Z,10.40
2018-04-28T23:59:47.141Z,12.60
